createdAt,value
2023-01-09T00:00:37.514Z,86
2023-01-09T00:01:39.762Z,86
2023-01-09T00:02:42.087Z,86
2023-01-09T00:03:44.226Z,86
2023-01-09T00:04:46.613Z,86
2023-01-09T00:05:48.843Z,86
2023-01-09T00:06:51.021Z,86
2023-01-09T00:10:13.172Z,86
2023-01-09T00:11:14.594Z,86
2023-01-09T00:12:16.007Z,86
2023-01-09T00:13:33.153Z,86
2023-01-09T00:14:35.457Z,86
2023-01-09T00:15:37.880Z,86
2023-01-09T00:16:40.085Z,86
2023-01-09T00:17:42.990Z,85
2023-01-09T00:18:45.462Z,85
2023-01-09T00:19:47.740Z,86
2023-01-09T00:20:50.023Z,86
2023-01-09T00:21:52.825Z,85
2023-01-09T00:22:55.022Z,85
2023-01-09T00:23:57.262Z,85
2023-01-09T00:24:59.581Z,85
2023-01-09T00:26:01.885Z,86
2023-01-09T00:27:03.371Z,86
2023-01-09T00:28:05.658Z,86
2023-01-09T00:29:07.091Z,86
2023-01-09T00:30:09.347Z,86
2023-01-09T00:31:11.592Z,86
2023-01-09T00:32:14.002Z,85
2023-01-09T00:33:16.369Z,85
2023-01-09T00:34:17.758Z,85
2023-01-09T00:35:19.095Z,85
2023-01-09T00:36:20.535Z,85
2023-01-09T00:37:22.012Z,85
2023-01-09T00:38:23.401Z,85
2023-01-09T00:39:24.877Z,85
2023-01-09T00:40:27.153Z,85
2023-01-09T00:41:28.562Z,85
2023-01-09T00:42:30.644Z,85
2023-01-09T00:43:32.920Z,85
2023-01-09T00:44:35.128Z,85
2023-01-09T00:45:37.357Z,85
2023-01-09T00:46:39.643Z,85
2023-01-09T00:47:42.925Z,85
2023-01-09T00:48:45.109Z,85
2023-01-09T00:49:47.341Z,85
2023-01-09T00:50:49.604Z,85
2023-01-09T00:51:51.779Z,85
2023-01-09T00:52:53.872Z,85
2023-01-09T00:53:56.115Z,86
2023-01-09T00:54:58.375Z,86
2023-01-09T00:56:00.760Z,86
2023-01-09T00:57:02.964Z,86
2023-01-09T00:58:05.383Z,86
2023-01-09T01:01:03.640Z,85
2023-01-09T01:02:06.142Z,85
2023-01-09T01:03:33.424Z,85
2023-01-09T01:04:34.850Z,85
2023-01-09T01:05:37.004Z,85
2023-01-09T01:06:39.540Z,85
2023-01-09T01:07:42.929Z,85
2023-01-09T01:08:45.204Z,85
2023-01-09T01:09:47.502Z,85
2023-01-09T01:12:43.076Z,85
2023-01-09T01:13:45.390Z,85
2023-01-09T01:14:47.301Z,85
2023-01-09T01:15:49.503Z,85
2023-01-09T01:16:51.894Z,85
2023-01-09T01:17:54.181Z,85
2023-01-09T01:18:56.459Z,85
2023-01-09T01:19:58.776Z,85
2023-01-09T01:21:00.979Z,85
2023-01-09T01:22:03.272Z,85
2023-01-09T01:23:05.844Z,85
2023-01-09T01:24:08.012Z,85
2023-01-09T01:25:10.219Z,85
2023-01-09T01:26:12.591Z,85
2023-01-09T01:27:14.780Z,85
2023-01-09T01:28:17.157Z,85
2023-01-09T01:29:18.581Z,85
2023-01-09T01:30:19.997Z,85
2023-01-09T01:31:21.333Z,85
2023-01-09T01:32:22.745Z,85
2023-01-09T01:33:33.329Z,86
2023-01-09T01:34:35.691Z,86
2023-01-09T01:35:37.979Z,86
2023-01-09T01:36:40.232Z,86
2023-01-09T01:37:43.110Z,86
2023-01-09T01:38:45.382Z,86
2023-01-09T01:40:12.890Z,86
2023-01-09T01:41:52.944Z,86
2023-01-09T01:42:55.258Z,86
2023-01-09T01:43:57.472Z,86
2023-01-09T01:44:58.913Z,86
2023-01-09T01:46:01.241Z,86
2023-01-09T01:47:03.651Z,86
2023-01-09T01:48:05.995Z,86
2023-01-09T01:49:07.480Z,86
2023-01-09T01:50:09.754Z,86
2023-01-09T01:51:12.040Z,86
2023-01-09T01:52:43.244Z,86
2023-01-09T01:53:45.393Z,86
2023-01-09T01:54:47.638Z,86
2023-01-09T01:55:49.899Z,86
2023-01-09T01:56:53.142Z,86
2023-01-09T01:58:32.327Z,86
2023-01-09T01:59:34.574Z,86
2023-01-09T02:00:36.798Z,86
2023-01-09T02:01:39.188Z,86
2023-01-09T02:02:41.469Z,86
2023-01-09T02:03:43.648Z,86
2023-01-09T02:04:45.780Z,86
2023-01-09T02:05:48.062Z,86
2023-01-09T02:06:50.431Z,86
2023-01-09T02:07:52.701Z,86
2023-01-09T02:08:55.052Z,86
2023-01-09T02:09:57.504Z,86
2023-01-09T02:10:59.770Z,86
2023-01-09T02:12:01.952Z,86
2023-01-09T02:13:04.211Z,86
2023-01-09T02:14:06.504Z,86
2023-01-09T02:15:08.616Z,86
2023-01-09T02:16:11.103Z,86
2023-01-09T02:17:13.440Z,86
2023-01-09T02:18:15.790Z,86
2023-01-09T02:19:17.247Z,86
2023-01-09T02:20:19.392Z,86
2023-01-09T02:21:53.080Z,86
2023-01-09T02:22:55.323Z,86
2023-01-09T02:23:57.702Z,86
2023-01-09T02:25:00.114Z,87
2023-01-09T02:26:02.739Z,86
2023-01-09T02:27:04.934Z,87
2023-01-09T02:28:32.084Z,87
2023-01-09T02:30:12.482Z,87
2023-01-09T02:31:14.972Z,87
2023-01-09T02:32:17.242Z,87
2023-01-09T02:33:19.490Z,87
2023-01-09T02:34:21.748Z,87
2023-01-09T02:35:24.023Z,87
2023-01-09T02:36:53.680Z,87
2023-01-09T02:37:56.167Z,87
2023-01-09T02:38:58.531Z,87
2023-01-09T02:40:00.792Z,87
2023-01-09T02:41:03.080Z,87
2023-01-09T02:42:05.703Z,87
2023-01-09T02:43:07.961Z,87
2023-01-09T02:44:22.630Z,87
2023-01-09T02:46:03.167Z,87
2023-01-09T02:47:05.720Z,87
2023-01-09T02:48:07.900Z,87
2023-01-09T02:49:09.327Z,87
2023-01-09T02:50:11.625Z,87
2023-01-09T02:51:13.862Z,87
2023-01-09T02:52:15.789Z,87
2023-01-09T02:53:32.025Z,87
2023-01-09T02:54:34.272Z,87
2023-01-09T02:55:36.584Z,87
2023-01-09T02:56:38.846Z,87
2023-01-09T02:57:40.994Z,87
2023-01-09T02:58:43.244Z,87
2023-01-09T02:59:45.513Z,87
2023-01-09T03:00:47.864Z,87
2023-01-09T03:01:50.248Z,87
2023-01-09T03:02:51.986Z,87
2023-01-09T03:03:54.271Z,87
2023-01-09T03:04:56.140Z,87
2023-01-09T03:05:58.405Z,87
2023-01-09T03:07:00.701Z,87
2023-01-09T03:08:03.097Z,87
2023-01-09T03:09:05.362Z,87
2023-01-09T03:10:07.617Z,87
2023-01-09T03:11:10.043Z,87
2023-01-09T03:12:12.346Z,87
2023-01-09T03:13:14.800Z,87
2023-01-09T03:14:17.231Z,87
2023-01-09T03:16:02.087Z,87
2023-01-09T03:17:04.228Z,87
2023-01-09T03:18:06.409Z,87
2023-01-09T03:19:08.915Z,87
2023-01-09T03:20:11.019Z,87
2023-01-09T03:21:13.266Z,87
2023-01-09T03:22:42.925Z,87
2023-01-09T03:23:45.324Z,87
2023-01-09T03:25:13.280Z,87
2023-01-09T03:26:15.475Z,87
2023-01-09T03:27:17.696Z,87
2023-01-09T03:28:32.817Z,87
2023-01-09T03:29:34.238Z,87
2023-01-09T03:30:35.702Z,88
2023-01-09T03:31:37.129Z,88
2023-01-09T03:32:38.568Z,88
2023-01-09T03:33:40.784Z,88
2023-01-09T03:34:43.031Z,88
2023-01-09T03:35:45.155Z,89
2023-01-09T03:36:47.455Z,89
2023-01-09T03:37:48.999Z,89
2023-01-09T03:38:51.190Z,89
2023-01-09T03:39:53.440Z,89
2023-01-09T03:40:55.814Z,89
2023-01-09T03:41:57.922Z,89
2023-01-09T03:42:59.361Z,89
2023-01-09T03:44:01.815Z,89
2023-01-09T03:45:03.973Z,90
2023-01-09T03:46:06.568Z,90
2023-01-09T03:47:08.713Z,91
2023-01-09T03:48:10.961Z,91
2023-01-09T03:49:13.251Z,91
2023-01-09T03:51:53.009Z,91
2023-01-09T03:52:55.201Z,91
2023-01-09T03:53:57.433Z,91
2023-01-09T03:54:59.631Z,91
2023-01-09T03:56:02.892Z,91
2023-01-09T03:57:05.034Z,91
2023-01-09T03:58:06.486Z,91
2023-01-09T03:59:08.803Z,91
2023-01-09T04:00:12.191Z,91
2023-01-09T04:01:14.522Z,91
2023-01-09T04:02:43.910Z,91
2023-01-09T04:03:46.305Z,91
2023-01-09T04:05:13.372Z,91
2023-01-09T04:06:53.517Z,91
2023-01-09T04:07:55.991Z,91
2023-01-09T04:08:58.369Z,91
2023-01-09T04:10:00.521Z,91
2023-01-09T04:11:03.284Z,91
2023-01-09T04:12:05.566Z,91
2023-01-09T04:14:23.025Z,91
2023-01-09T04:15:25.320Z,91
2023-01-09T04:16:53.482Z,91
2023-01-09T04:17:55.737Z,91
2023-01-09T04:18:57.922Z,91
2023-01-09T04:20:00.051Z,91
2023-01-09T04:21:02.341Z,91
2023-01-09T04:22:04.449Z,91
2023-01-09T04:23:07.155Z,91
2023-01-09T04:24:09.335Z,91
2023-01-09T04:25:11.664Z,91
2023-01-09T04:26:13.834Z,91
2023-01-09T04:27:16.086Z,91
2023-01-09T04:28:18.315Z,91
2023-01-09T04:29:20.489Z,91
2023-01-09T04:30:23.291Z,91
2023-01-09T04:31:24.783Z,91
2023-01-09T04:32:27.066Z,91
2023-01-09T04:33:28.919Z,91
2023-01-09T04:34:30.339Z,91
2023-01-09T04:35:32.748Z,91
2023-01-09T04:36:52.761Z,91
2023-01-09T04:37:54.916Z,91
2023-01-09T04:38:57.279Z,91
2023-01-09T04:41:03.399Z,91
2023-01-09T04:42:05.767Z,91
2023-01-09T04:43:07.991Z,91
2023-01-09T04:44:10.205Z,91
2023-01-09T04:45:12.466Z,91
2023-01-09T04:46:14.888Z,91
2023-01-09T04:47:17.127Z,91
2023-01-09T04:48:19.434Z,91
2023-01-09T04:49:21.654Z,91
2023-01-09T04:50:23.813Z,91
2023-01-09T04:51:26.259Z,91
2023-01-09T04:52:28.324Z,91
2023-01-09T04:53:29.785Z,91
2023-01-09T04:55:12.814Z,91
2023-01-09T04:56:15.153Z,91
2023-01-09T04:57:17.562Z,91
2023-01-09T04:58:19.760Z,91
2023-01-09T04:59:22.783Z,91
2023-01-09T05:00:25.116Z,91
2023-01-09T05:01:27.574Z,91
2023-01-09T05:02:29.072Z,91
2023-01-09T05:03:30.520Z,91
2023-01-09T05:04:32.016Z,91
2023-01-09T05:05:33.463Z,91
2023-01-09T05:06:34.841Z,91
2023-01-09T05:07:36.442Z,91
2023-01-09T05:08:37.860Z,91
2023-01-09T05:09:39.326Z,91
2023-01-09T05:11:03.400Z,91
2023-01-09T05:12:05.584Z,91
2023-01-09T05:13:07.686Z,91
2023-01-09T05:14:09.981Z,91
2023-01-09T05:15:12.994Z,91
2023-01-09T05:16:15.369Z,91
2023-01-09T05:17:17.651Z,91
2023-01-09T05:18:19.322Z,91
2023-01-09T05:19:21.515Z,91
2023-01-09T05:21:02.811Z,91
2023-01-09T05:22:05.136Z,91
2023-01-09T05:23:07.398Z,91
2023-01-09T05:24:09.931Z,91
2023-01-09T05:25:12.987Z,91
2023-01-09T05:26:15.335Z,91
2023-01-09T05:27:16.771Z,91
2023-01-09T05:28:19.201Z,91
2023-01-09T05:29:21.296Z,91
2023-01-09T05:30:23.402Z,91
2023-01-09T05:31:25.876Z,91
2023-01-09T05:32:42.156Z,91
2023-01-09T05:33:43.572Z,91
2023-01-09T05:34:45.012Z,91
2023-01-09T05:36:02.841Z,91
2023-01-09T05:37:05.012Z,91
2023-01-09T05:38:07.281Z,91
2023-01-09T05:39:09.692Z,91
2023-01-09T05:40:12.984Z,91
2023-01-09T05:41:15.343Z,91
2023-01-09T05:42:17.594Z,91
2023-01-09T05:43:19.033Z,91
2023-01-09T05:44:21.321Z,91
2023-01-09T05:46:03.148Z,91
2023-01-09T05:47:05.393Z,91
2023-01-09T05:48:07.663Z,91
2023-01-09T05:49:09.100Z,91
2023-01-09T05:50:11.393Z,91
2023-01-09T05:51:13.887Z,91
2023-01-09T05:52:16.204Z,91
2023-01-09T05:53:18.463Z,91
2023-01-09T05:54:20.934Z,91
2023-01-09T05:55:23.165Z,91
2023-01-09T05:56:25.704Z,91
2023-01-09T05:57:27.913Z,91
2023-01-09T05:58:30.144Z,91
2023-01-09T05:59:32.355Z,91
2023-01-09T06:00:34.162Z,91
2023-01-09T06:01:52.959Z,91
2023-01-09T06:02:55.391Z,91
2023-01-09T06:03:57.775Z,91
2023-01-09T06:05:13.477Z,91
2023-01-09T06:06:52.965Z,91
2023-01-09T06:07:55.023Z,91
2023-01-09T06:08:57.200Z,91
2023-01-09T06:10:13.183Z,91
2023-01-09T06:11:15.585Z,91
2023-01-09T06:12:17.802Z,91
2023-01-09T06:13:19.315Z,91
2023-01-09T06:15:23.652Z,91
2023-01-09T06:16:26.001Z,91
2023-01-09T06:17:28.233Z,91
2023-01-09T06:18:30.599Z,91
2023-01-09T06:20:12.910Z,91
2023-01-09T06:21:15.080Z,91
2023-01-09T06:22:17.260Z,91
2023-01-09T06:23:19.452Z,91
2023-01-09T06:24:21.829Z,91
2023-01-09T06:25:24.080Z,91
2023-01-09T06:26:26.242Z,91
2023-01-09T06:27:28.759Z,91
2023-01-09T06:28:31.115Z,91
2023-01-09T06:29:33.542Z,91
2023-01-09T06:30:34.982Z,91
2023-01-09T06:31:36.449Z,91
2023-01-09T06:32:37.841Z,91
2023-01-09T06:33:39.230Z,91
2023-01-09T06:34:40.707Z,91
2023-01-09T06:35:43.041Z,91
2023-01-09T06:36:45.481Z,91
2023-01-09T06:37:46.902Z,91
2023-01-09T06:38:49.001Z,91
2023-01-09T06:39:50.480Z,91
2023-01-09T06:40:52.801Z,91
2023-01-09T06:41:55.101Z,91
2023-01-09T06:42:57.461Z,91
2023-01-09T06:44:22.860Z,91
2023-01-09T06:46:26.827Z,91
2023-01-09T06:47:28.290Z,91
2023-01-09T06:49:22.801Z,91
2023-01-09T06:50:25.013Z,91
2023-01-09T06:51:27.169Z,91
2023-01-09T06:52:28.590Z,91
2023-01-09T06:53:30.039Z,91
2023-01-09T06:54:32.219Z,91
2023-01-09T06:55:34.450Z,91
2023-01-09T06:56:36.777Z,91
2023-01-09T06:57:38.214Z,91
2023-01-09T06:58:39.641Z,91
2023-01-09T06:59:41.047Z,91
2023-01-09T07:01:02.457Z,91
2023-01-09T07:02:05.191Z,91
2023-01-09T07:03:07.452Z,91
2023-01-09T07:04:22.738Z,91
2023-01-09T07:05:24.974Z,91
2023-01-09T07:06:27.124Z,91
2023-01-09T07:07:29.321Z,91
2023-01-09T07:08:31.521Z,91
2023-01-09T07:09:33.722Z,91
2023-01-09T07:10:35.984Z,91
2023-01-09T07:11:53.080Z,91
2023-01-09T07:12:55.488Z,91
2023-01-09T07:13:57.825Z,91
2023-01-09T07:15:00.202Z,91
2023-01-09T07:16:03.282Z,91
2023-01-09T07:17:05.646Z,91
2023-01-09T07:18:07.781Z,91
2023-01-09T07:19:22.841Z,91
2023-01-09T07:20:25.054Z,91
2023-01-09T07:21:26.493Z,91
2023-01-09T07:22:28.731Z,91
2023-01-09T07:23:30.213Z,91
2023-01-09T07:24:32.540Z,91
2023-01-09T07:25:34.845Z,91
2023-01-09T07:26:51.987Z,91
2023-01-09T07:28:32.939Z,91
2023-01-09T07:29:35.119Z,91
2023-01-09T07:30:37.310Z,91
2023-01-09T07:31:39.464Z,91
2023-01-09T07:32:40.854Z,91
2023-01-09T07:33:42.244Z,91
2023-01-09T07:34:43.639Z,91
2023-01-09T07:35:45.061Z,91
2023-01-09T07:36:46.489Z,91
2023-01-09T07:37:47.931Z,91
2023-01-09T07:38:49.413Z,91
2023-01-09T07:40:12.751Z,91
2023-01-09T07:41:15.003Z,91
2023-01-09T07:42:17.247Z,91
2023-01-09T07:43:18.691Z,91
2023-01-09T07:44:21.152Z,91
2023-01-09T07:45:23.293Z,91
2023-01-09T07:46:25.582Z,91
2023-01-09T07:47:27.798Z,91
2023-01-09T07:48:30.211Z,91
2023-01-09T07:49:32.419Z,91
2023-01-09T07:50:34.681Z,91
2023-01-09T07:51:36.981Z,91
2023-01-09T07:52:38.413Z,91
2023-01-09T07:53:39.863Z,91
2023-01-09T07:54:41.349Z,91
2023-01-09T07:56:03.231Z,91
2023-01-09T07:57:05.452Z,91
2023-01-09T07:58:07.693Z,91
2023-01-09T07:59:09.945Z,91
2023-01-09T08:00:12.421Z,91
2023-01-09T08:01:14.759Z,91
2023-01-09T08:02:42.079Z,91
2023-01-09T08:03:44.361Z,91
2023-01-09T08:04:45.794Z,91
2023-01-09T08:05:47.806Z,91
2023-01-09T08:06:50.602Z,91
2023-01-09T08:08:33.493Z,91
2023-01-09T08:09:34.941Z,91
2023-01-09T08:10:37.221Z,91
2023-01-09T08:11:39.660Z,91
2023-01-09T08:12:41.963Z,91
2023-01-09T08:13:43.326Z,91
2023-01-09T08:14:44.698Z,91
2023-01-09T08:15:46.051Z,91
2023-01-09T08:16:47.534Z,91
2023-01-09T08:17:49.006Z,91
2023-01-09T08:18:50.452Z,91
2023-01-09T08:19:51.863Z,91
2023-01-09T08:20:53.311Z,91
2023-01-09T08:21:54.794Z,91
2023-01-09T08:24:22.902Z,91
2023-01-09T08:25:25.243Z,91
2023-01-09T08:26:27.484Z,91
2023-01-09T08:27:29.646Z,91
2023-01-09T08:28:32.882Z,91
2023-01-09T08:29:35.237Z,91
2023-01-09T08:31:03.542Z,91
2023-01-09T08:32:05.785Z,91
2023-01-09T08:33:08.277Z,91
2023-01-09T08:34:23.039Z,91
2023-01-09T08:36:03.091Z,91
2023-01-09T08:37:05.477Z,91
2023-01-09T08:38:07.690Z,91
2023-01-09T08:39:10.070Z,91
2023-01-09T08:40:11.982Z,91
2023-01-09T08:41:14.201Z,91
2023-01-09T08:42:16.464Z,91
2023-01-09T08:43:18.710Z,91
2023-01-09T08:44:21.241Z,91
2023-01-09T08:45:22.693Z,91
2023-01-09T08:46:24.967Z,91
2023-01-09T08:47:27.283Z,90
2023-01-09T08:48:29.617Z,90
2023-01-09T08:49:32.289Z,90
2023-01-09T08:50:34.649Z,89
2023-01-09T08:51:36.832Z,89
2023-01-09T08:52:39.123Z,89
2023-01-09T08:53:41.443Z,89
2023-01-09T08:54:43.899Z,89
2023-01-09T08:55:45.320Z,89
2023-01-09T08:56:46.705Z,89
2023-01-09T08:57:48.152Z,89
2023-01-09T08:58:49.562Z,89
2023-01-09T08:59:51.031Z,89
2023-01-09T09:00:52.407Z,89
2023-01-09T09:01:53.855Z,89
2023-01-09T09:03:32.894Z,89
2023-01-09T09:04:35.172Z,89
2023-01-09T09:05:37.330Z,89
2023-01-09T09:06:39.633Z,89
2023-01-09T09:07:41.893Z,89
2023-01-09T09:08:44.332Z,89
2023-01-09T09:09:45.756Z,89
2023-01-09T09:10:47.145Z,89
2023-01-09T09:11:48.515Z,89
2023-01-09T09:12:49.911Z,89
2023-01-09T09:13:51.331Z,89
2023-01-09T09:14:52.755Z,89
2023-01-09T09:15:55.430Z,89
2023-01-09T09:16:56.856Z,89
2023-01-09T09:17:58.287Z,89
2023-01-09T09:19:22.806Z,88
2023-01-09T09:21:03.265Z,89
2023-01-09T09:22:05.524Z,89
2023-01-09T09:23:07.783Z,89
2023-01-09T09:24:09.205Z,89
2023-01-09T09:25:11.405Z,88
2023-01-09T09:26:12.881Z,88
2023-01-09T09:27:15.084Z,88
2023-01-09T09:28:17.663Z,88
2023-01-09T09:29:22.357Z,88
2023-01-09T09:30:24.580Z,88
2023-01-09T09:31:27.067Z,88
2023-01-09T09:32:41.946Z,88
2023-01-09T09:33:43.374Z,88
2023-01-09T09:35:12.404Z,89
2023-01-09T09:36:13.816Z,89
2023-01-09T09:37:15.303Z,89
2023-01-09T09:38:16.763Z,89
2023-01-09T09:39:18.131Z,90
2023-01-09T09:40:19.513Z,90
2023-01-09T09:41:20.914Z,90
2023-01-09T09:42:22.374Z,91
2023-01-09T09:43:23.788Z,91
2023-01-09T09:44:25.202Z,91
2023-01-09T09:45:26.638Z,91
2023-01-09T09:46:28.119Z,91
2023-01-09T09:47:29.608Z,91
2023-01-09T09:48:31.053Z,91
2023-01-09T09:49:32.494Z,91
2023-01-09T09:51:01.988Z,91
2023-01-09T09:52:03.471Z,91
2023-01-09T09:54:22.096Z,91
2023-01-09T09:55:23.512Z,91
2023-01-09T09:56:24.885Z,91
2023-01-09T09:57:42.174Z,91
2023-01-09T09:58:43.585Z,91
2023-01-09T09:59:44.958Z,91
2023-01-09T10:00:46.317Z,91
2023-01-09T10:01:47.677Z,91
2023-01-09T10:02:49.133Z,91
2023-01-09T10:04:22.387Z,91
2023-01-09T10:05:23.767Z,91
2023-01-09T10:06:25.206Z,91
2023-01-09T10:07:26.609Z,91
2023-01-09T10:08:28.006Z,91
2023-01-09T10:09:29.386Z,91
2023-01-09T10:10:30.827Z,91
2023-01-09T10:11:32.216Z,91
2023-01-09T10:13:32.648Z,91
2023-01-09T10:14:34.067Z,91
2023-01-09T10:15:38.262Z,91
2023-01-09T10:16:39.897Z,91
2023-01-09T10:17:41.280Z,91
2023-01-09T10:18:42.644Z,91
2023-01-09T10:19:44.047Z,91
2023-01-09T10:20:45.489Z,91
2023-01-09T10:21:47.117Z,91
2023-01-09T10:22:48.500Z,91
2023-01-09T10:23:49.911Z,91
2023-01-09T10:24:51.374Z,91
2023-01-09T10:25:52.875Z,91
2023-01-09T10:26:54.305Z,91
2023-01-09T10:27:55.717Z,91
2023-01-09T10:28:57.128Z,91
2023-01-09T10:29:58.588Z,91
2023-01-09T10:31:00.076Z,91
2023-01-09T10:32:01.526Z,91
2023-01-09T10:33:02.942Z,91
2023-01-09T10:34:04.356Z,91
2023-01-09T10:35:05.841Z,91
2023-01-09T10:36:07.254Z,91
2023-01-09T10:37:42.258Z,91
2023-01-09T10:39:22.112Z,91
2023-01-09T10:40:23.523Z,91
2023-01-09T10:41:24.916Z,91
2023-01-09T10:42:26.335Z,91
2023-01-09T10:43:27.732Z,91
2023-01-09T10:44:29.196Z,91
2023-01-09T10:45:30.675Z,91
2023-01-09T10:46:32.126Z,91
2023-01-09T10:47:33.900Z,91
2023-01-09T10:48:35.351Z,91
2023-01-09T10:49:36.815Z,91
2023-01-09T10:50:38.214Z,91
2023-01-09T10:51:39.622Z,91
2023-01-09T10:52:41.052Z,91
2023-01-09T10:53:42.612Z,91
2023-01-09T10:54:44.089Z,91
2023-01-09T10:55:45.534Z,91
2023-01-09T10:56:47.006Z,91
2023-01-09T10:57:48.420Z,91
2023-01-09T10:58:49.827Z,91
2023-01-09T11:00:11.883Z,91
2023-01-09T11:01:13.295Z,91
2023-01-09T11:02:15.008Z,91
2023-01-09T11:03:16.430Z,91
2023-01-09T11:04:17.821Z,91
2023-01-09T11:05:19.190Z,91
2023-01-09T11:06:20.598Z,91
2023-01-09T11:07:21.964Z,91
2023-01-09T11:09:22.769Z,91
2023-01-09T11:10:24.156Z,91
2023-01-09T11:11:25.488Z,91
2023-01-09T11:12:26.852Z,91
2023-01-09T11:13:28.212Z,91
2023-01-09T11:14:29.608Z,91
2023-01-09T11:15:31.051Z,91
2023-01-09T11:16:32.478Z,91
2023-01-09T11:17:34.044Z,91
2023-01-09T11:18:35.388Z,91
2023-01-09T11:19:36.798Z,91
2023-01-09T11:20:38.189Z,91
2023-01-09T11:21:39.570Z,91
2023-01-09T11:22:40.977Z,91
2023-01-09T11:23:42.407Z,91
2023-01-09T11:24:43.836Z,91
2023-01-09T11:25:45.221Z,91
2023-01-09T11:26:46.675Z,91
2023-01-09T11:27:48.083Z,91
2023-01-09T11:28:49.562Z,91
2023-01-09T11:29:50.929Z,91
2023-01-09T11:30:52.316Z,91
2023-01-09T11:31:53.716Z,91
2023-01-09T11:32:55.100Z,91
2023-01-09T11:33:56.627Z,91
2023-01-09T11:34:58.023Z,91
2023-01-09T11:35:59.403Z,91
2023-01-09T11:37:00.815Z,91
2023-01-09T11:38:02.228Z,91
2023-01-09T11:39:03.558Z,91
2023-01-09T11:40:04.968Z,91
2023-01-09T11:41:06.385Z,91
2023-01-09T11:42:07.764Z,91
2023-01-09T11:43:09.153Z,91
2023-01-09T11:44:10.523Z,91
2023-01-09T11:45:11.965Z,91
2023-01-09T11:46:13.368Z,91
2023-01-09T11:47:14.766Z,91
2023-01-09T11:48:16.161Z,91
2023-01-09T11:49:17.573Z,91
2023-01-09T11:50:18.983Z,91
2023-01-09T11:51:20.389Z,91
2023-01-09T11:52:21.756Z,91
2023-01-09T11:53:23.127Z,91
2023-01-09T11:54:24.503Z,91
2023-01-09T11:55:32.039Z,91
2023-01-09T11:56:36.212Z,91
2023-01-09T11:57:37.604Z,91
2023-01-09T11:58:39.038Z,91
2023-01-09T11:59:40.421Z,91
2023-01-09T12:00:41.897Z,91
2023-01-09T12:01:43.332Z,91
2023-01-09T12:02:44.762Z,91
2023-01-09T12:03:46.164Z,91
2023-01-09T12:04:47.607Z,91
2023-01-09T12:06:01.863Z,91
2023-01-09T12:07:03.255Z,91
2023-01-09T12:08:04.653Z,91
2023-01-09T12:09:06.033Z,91
2023-01-09T12:10:07.435Z,91
2023-01-09T12:11:08.934Z,91
2023-01-09T12:12:10.294Z,91
2023-01-09T12:13:11.682Z,91
2023-01-09T12:14:13.095Z,91
2023-01-09T12:15:14.509Z,91
2023-01-09T12:16:15.900Z,91
2023-01-09T12:17:17.311Z,91
2023-01-09T12:18:18.667Z,91
2023-01-09T12:19:20.030Z,91
2023-01-09T12:20:21.415Z,91
2023-01-09T12:21:22.790Z,91
2023-01-09T12:22:24.125Z,91
2023-01-09T12:23:25.512Z,91
2023-01-09T12:24:26.879Z,91
2023-01-09T12:25:28.247Z,91
2023-01-09T12:26:29.627Z,91
2023-01-09T12:27:31.077Z,91
2023-01-09T12:28:32.676Z,91
2023-01-09T12:29:34.113Z,91
2023-01-09T12:30:35.541Z,91
2023-01-09T12:31:37.132Z,91
2023-01-09T12:32:38.532Z,91
2023-01-09T12:33:39.971Z,91
2023-01-09T12:34:41.351Z,91
2023-01-09T12:35:42.772Z,91
2023-01-09T12:40:12.171Z,89
2023-01-09T12:41:52.726Z,89
2023-01-09T12:57:42.514Z,86
2023-01-09T13:00:12.715Z,86
2023-01-09T13:01:14.223Z,86
2023-01-09T13:13:31.943Z,83
2023-01-09T13:27:43.013Z,83
2023-01-09T13:46:01.981Z,82
2023-01-09T13:55:12.324Z,81
2023-01-09T14:04:21.834Z,82
2023-01-09T14:11:52.418Z,81
2023-01-09T14:16:51.912Z,81
2023-01-09T14:19:21.946Z,82
2023-01-09T14:24:21.974Z,82
2023-01-09T14:30:11.820Z,82
2023-01-09T14:41:52.558Z,81
2023-01-09T14:48:32.405Z,81
2023-01-09T14:59:22.051Z,81
2023-01-09T15:24:21.814Z,82
2023-01-09T15:25:30.507Z,83
2023-01-09T15:26:35.024Z,83
2023-01-09T15:27:36.440Z,83
2023-01-09T15:28:38.803Z,83
2023-01-09T15:29:40.391Z,83
2023-01-09T15:30:41.796Z,83
2023-01-09T15:32:41.840Z,83
2023-01-09T15:33:43.580Z,83
2023-01-09T15:34:45.099Z,84
2023-01-09T15:35:46.541Z,84
2023-01-09T15:36:48.001Z,84
2023-01-09T15:37:49.431Z,84
2023-01-09T15:38:50.921Z,84
2023-01-09T15:39:52.270Z,84
2023-01-09T15:40:53.689Z,84
2023-01-09T15:41:55.112Z,84
2023-01-09T15:42:57.949Z,84
2023-01-09T15:43:59.431Z,84
2023-01-09T15:45:00.870Z,84
2023-01-09T15:46:02.376Z,84
2023-01-09T15:47:04.692Z,84
2023-01-09T15:48:06.082Z,84
2023-01-09T15:49:07.525Z,84
2023-01-09T15:50:11.297Z,84
2023-01-09T15:51:13.874Z,84
2023-01-09T15:52:15.266Z,84
2023-01-09T15:53:31.839Z,84
2023-01-09T15:54:33.282Z,84
2023-01-09T15:55:34.742Z,84
2023-01-09T15:56:36.122Z,83
2023-01-09T15:57:37.546Z,83
2023-01-09T15:58:38.939Z,83
2023-01-09T15:59:40.345Z,83
2023-01-09T16:00:41.823Z,83
2023-01-09T16:01:43.313Z,83
2023-01-09T16:02:44.789Z,83
2023-01-09T16:03:46.275Z,83
2023-01-09T16:04:47.733Z,83
2023-01-09T16:06:01.943Z,83
2023-01-09T16:07:03.370Z,83
2023-01-09T16:08:04.803Z,83
2023-01-09T16:09:22.053Z,82
2023-01-09T16:10:23.475Z,82
2023-01-09T16:11:24.932Z,82
2023-01-09T16:12:26.351Z,82
2023-01-09T16:13:27.785Z,82
2023-01-09T16:14:29.171Z,82
2023-01-09T16:15:30.601Z,82
2023-01-09T16:16:32.033Z,82
2023-01-09T16:17:33.425Z,81
2023-01-09T16:18:34.829Z,81
2023-01-09T16:19:36.299Z,81
2023-01-09T16:20:37.721Z,81
2023-01-09T16:21:39.173Z,81
2023-01-09T16:22:40.603Z,81
2023-01-09T16:23:42.032Z,81
2023-01-09T16:24:43.501Z,81
2023-01-09T16:26:02.587Z,80
2023-01-09T16:27:04.736Z,80
2023-01-09T16:28:08.403Z,80
2023-01-09T16:29:09.903Z,80
2023-01-09T16:30:12.076Z,80
2023-01-09T16:31:13.563Z,80
2023-01-09T16:32:15.166Z,80
2023-01-09T16:33:16.679Z,80
2023-01-09T16:34:18.084Z,80
2023-01-09T16:35:19.482Z,80
2023-01-09T16:36:20.976Z,80
2023-01-09T16:37:22.356Z,79
2023-01-09T16:38:23.784Z,79
2023-01-09T16:39:25.181Z,79
2023-01-09T16:40:26.589Z,79
2023-01-09T16:41:28.096Z,79
2023-01-09T16:42:29.729Z,79
2023-01-09T16:43:32.129Z,79
2023-01-09T16:44:33.537Z,79
2023-01-09T16:45:35.002Z,79
2023-01-09T16:46:36.431Z,79
2023-01-09T16:47:37.922Z,79
2023-01-09T16:48:39.353Z,79
2023-01-09T16:49:40.774Z,79
2023-01-09T16:50:42.231Z,79
2023-01-09T16:51:43.641Z,79
2023-01-09T16:52:46.553Z,79
2023-01-09T16:53:48.612Z,79
2023-01-09T16:54:50.020Z,79
2023-01-09T16:55:51.396Z,79
2023-01-09T16:56:52.800Z,79
2023-01-09T16:57:54.246Z,79
2023-01-09T16:58:55.621Z,80
2023-01-09T17:00:11.778Z,80
2023-01-09T17:01:13.213Z,80
2023-01-09T17:02:14.714Z,79
2023-01-09T17:03:16.164Z,80
2023-01-09T17:04:17.593Z,80
2023-01-09T17:05:19.053Z,80
2023-01-09T17:06:20.493Z,80
2023-01-09T17:07:21.852Z,80
2023-01-09T17:08:23.274Z,80
2023-01-09T17:09:27.210Z,80
2023-01-09T17:10:28.803Z,80
2023-01-09T17:11:30.189Z,80
2023-01-09T17:12:31.597Z,80
2023-01-09T17:13:33.033Z,80
2023-01-09T17:14:34.461Z,81
2023-01-09T17:15:35.885Z,81
2023-01-09T17:16:37.568Z,81
2023-01-09T17:17:39.013Z,81
2023-01-09T17:18:40.442Z,81
2023-01-09T17:19:41.865Z,81
2023-01-09T17:20:43.266Z,81
2023-01-09T17:21:44.825Z,81
2023-01-09T17:22:46.271Z,81
2023-01-09T17:23:47.685Z,81
2023-01-09T17:24:49.108Z,81
2023-01-09T17:25:50.529Z,81
2023-01-09T17:26:52.133Z,81
2023-01-09T17:27:53.565Z,81
2023-01-09T17:28:55.002Z,81
2023-01-09T17:29:56.421Z,81
2023-01-09T17:30:57.860Z,81
2023-01-09T17:31:59.310Z,81
2023-01-09T17:33:00.697Z,81
2023-01-09T17:34:21.801Z,81
2023-01-09T17:35:23.312Z,81
2023-01-09T17:36:24.740Z,81
2023-01-09T17:37:26.126Z,81
2023-01-09T17:38:27.629Z,81
2023-01-09T17:39:29.043Z,81
2023-01-09T17:40:30.439Z,81
2023-01-09T17:41:31.851Z,81
2023-01-09T17:42:33.239Z,81
2023-01-09T17:43:34.631Z,80
2023-01-09T17:44:36.070Z,80
2023-01-09T17:45:37.700Z,80
2023-01-09T17:46:39.122Z,80
2023-01-09T17:47:40.590Z,80
2023-01-09T17:48:41.977Z,80
2023-01-09T17:49:43.353Z,80
2023-01-09T17:50:44.809Z,80
2023-01-09T17:51:46.215Z,80
2023-01-09T17:52:47.622Z,80
2023-01-09T17:53:49.293Z,80
2023-01-09T17:54:51.064Z,80
2023-01-09T17:55:52.550Z,79
2023-01-09T17:56:53.985Z,79
2023-01-09T17:57:55.410Z,79